Time;durP1;ratioP1;P1;durP2;ratioP2;P2;SDS_P1;SDS_P2;PMS_P1;PMS_P2;Temp;Humidity;BMP_temperature;BMP_pressure;BME280_temperature;BME280_humidity;BME280_pressure;Samples;Min_cycle;Max_cycle;Signal;HPM_P1;HPM_P2
2020/12/20 00:04:34;;;;;;;77.53;35.03;;;;;;;1.60;94.74;101360.75;3508686;82;31835;-81
2020/12/20 00:09:35;;;;;;;71.13;33.67;;;;;;;1.59;94.50;101358.58;3532328;82;98891;-81
2020/12/20 00:14:36;;;;;;;82.87;39.33;;;;;;;1.63;94.47;101366.92;3539041;82;32767;-81
2020/12/20 00:19:38;;;;;;;76.43;35.93;;;;;;;1.65;94.33;101367.45;3535088;81;98685;-81
2020/12/20 00:24:41;;;;;;;69.87;32.90;;;;;;;1.54;94.10;101368.71;3511534;82;31863;-80
2020/12/20 00:29:43;;;;;;;82.57;35.05;;;;;;;1.44;93.82;101365.61;3532663;82;98344;-80
2020/12/20 00:34:45;;;;;;;76.00;36.97;;;;;;;1.32;93.81;101353.02;3536621;82;31825;-82
2020/12/20 00:39:48;;;;;;;69.53;32.97;;;;;;;1.26;93.79;101355.55;3523176;82;98673;-80
2020/12/20 00:44:49;;;;;;;73.70;35.77;;;;;;;1.18;93.88;101352.14;3513163;82;31793;-81
2020/12/20 00:49:50;;;;;;;82.30;37.03;;;;;;;1.15;94.07;101370.91;3529489;82;98484;-80
2020/12/20 00:54:51;;;;;;;82.27;38.50;;;;;;;1.12;93.94;101368.23;3536562;82;32034;-80
2020/12/20 00:59:56;;;;;;;80.17;36.77;;;;;;;1.18;94.19;101375.20;3522933;82;98711;-80
2020/12/20 01:04:58;;;;;;;74.20;35.90;;;;;;;1.09;93.82;101382.35;3525507;82;31724;-80
2020/12/20 01:09:59;;;;;;;65.77;32.33;;;;;;;0.99;93.88;101383.83;3516511;81;97746;-81
2020/12/20 01:15:00;;;;;;;66.53;30.37;;;;;;;0.97;93.92;101383.86;3519475;82;32272;-81
2020/12/20 01:20:02;;;;;;;68.70;29.40;;;;;;;0.99;93.91;101374.91;3493398;82;98156;-80
2020/12/20 01:25:03;;;;;;;71.93;32.90;;;;;;;1.00;93.78;101366.47;3518303;82;32305;-81
2020/12/20 01:30:06;;;;;;;63.63;30.07;;;;;;;1.00;93.91;101365.11;3516549;82;98186;-81
2020/12/20 01:35:09;;;;;;;67.63;31.97;;;;;;;0.91;93.75;101363.34;3518337;82;31737;-81
2020/12/20 01:40:12;;;;;;;58.20;28.10;;;;;;;0.78;93.84;101360.00;3520336;82;98858;-81
2020/12/20 01:45:16;;;;;;;59.03;28.77;;;;;;;0.69;93.87;101363.89;3503384;83;32018;-80
2020/12/20 01:50:18;;;;;;;62.13;29.83;;;;;;;0.68;93.86;101373.13;3486807;82;98294;-80
2020/12/20 01:55:19;;;;;;;63.60;29.43;;;;;;;0.72;94.04;101372.78;3469078;84;31761;-79
2020/12/20 02:00:21;;;;;;;84.07;37.13;;;;;;;0.76;93.98;101366.23;3488507;83;98308;-79
2020/12/20 02:05:23;;;;;;;128.57;62.43;;;;;;;0.71;93.79;101360.91;3460483;84;32480;-81
2020/12/20 02:10:24;;;;;;;94.37;43.37;;;;;;;0.53;93.77;101354.33;3462695;83;98686;-81
2020/12/20 02:15:25;;;;;;;85.37;39.60;;;;;;;0.46;94.06;101345.75;3538979;82;31723;-81
2020/12/20 02:20:26;;;;;;;93.95;43.45;;;;;;;0.41;94.10;101344.45;3449166;82;98242;-81
2020/12/20 02:25:28;;;;;;;70.40;34.97;;;;;;;0.30;94.20;101332.11;3435973;84;31752;-80
2020/12/20 02:30:32;;;;;;;64.20;32.00;;;;;;;0.21;94.37;101334.36;3498790;82;98360;-81
2020/12/20 02:35:33;;;;;;;69.67;34.80;;;;;;;0.23;94.50;101332.19;3534940;82;31656;-81
2020/12/20 02:40:35;;;;;;;60.87;31.07;;;;;;;0.21;94.57;101333.83;3528398;82;98483;-78
2020/12/20 02:45:36;;;;;;;59.65;31.00;;;;;;;0.19;94.67;101331.96;3515651;82;31826;-78
2020/12/20 02:50:37;;;;;;;65.55;29.50;;;;;;;0.19;94.52;101320.31;3437315;83;98475;-78
2020/12/20 02:55:37;;;;;;;58.97;30.33;;;;;;;0.15;94.59;101314.67;3447857;84;32287;-78
2020/12/20 03:00:38;;;;;;;59.77;27.60;;;;;;;0.14;94.72;101310.89;3484205;83;98154;-78
2020/12/20 03:05:39;;;;;;;63.68;30.50;;;;;;;0.06;94.69;101308.27;3507175;83;31060;-78
2020/12/20 03:10:40;;;;;;;56.90;28.33;;;;;;;0.05;94.83;101307.19;3500791;83;99227;-78
2020/12/20 03:15:43;;;;;;;56.17;28.30;;;;;;;0.06;94.68;101298.00;3478474;82;25915;-78
2020/12/20 03:20:44;;;;;;;60.40;30.27;;;;;;;0.03;94.77;101306.67;3492179;83;99193;-78
2020/12/20 03:25:45;;;;;;;59.17;27.87;;;;;;;0.04;94.71;101317.22;3501194;83;30962;-78
2020/12/20 03:30:46;;;;;;;58.37;27.77;;;;;;;0.05;94.67;101314.77;3530836;81;98444;-78
2020/12/20 03:35:47;;;;;;;61.77;28.40;;;;;;;0.09;94.82;101328.53;3523540;82;26033;-79
2020/12/20 03:40:48;;;;;;;53.30;26.03;;;;;;;0.16;94.74;101323.58;3569674;80;98223;-79
2020/12/20 03:45:49;;;;;;;62.00;27.10;;;;;;;-0.02;94.41;101309.43;3586744;80;35097;-79
2020/12/20 03:50:50;;;;;;;57.13;26.63;;;;;;;-0.07;94.71;101317.06;3580897;81;98732;-79
2020/12/20 03:55:51;;;;;;;53.37;27.87;;;;;;;-0.02;94.68;101328.94;3596307;80;36135;-79
2020/12/20 04:00:52;;;;;;;64.60;29.77;;;;;;;0.07;94.79;101347.75;3587339;79;98422;-79
2020/12/20 04:05:55;;;;;;;66.63;28.77;;;;;;;0.18;94.57;101345.77;3596780;80;35056;-78
2020/12/20 04:10:56;;;;;;;57.13;28.23;;;;;;;0.07;94.17;101343.70;3541578;80;98183;-79
2020/12/20 04:15:57;;;;;;;59.60;28.87;;;;;;;0.08;94.19;101352.10;3535549;81;35582;-79
2020/12/20 04:20:58;;;;;;;64.60;32.97;;;;;;;0.04;93.74;101345.64;3531485;82;98452;-79
2020/12/20 04:25:59;;;;;;;66.83;30.70;;;;;;;-0.07;93.84;101343.30;3540239;81;34993;-79
2020/12/20 04:30:59;;;;;;;67.27;29.00;;;;;;;-0.07;93.99;101339.80;3441348;83;98381;-79
2020/12/20 04:36:00;;;;;;;76.07;35.67;;;;;;;-0.05;93.95;101345.98;3465689;83;35023;-79
2020/12/20 04:41:02;;;;;;;64.63;30.90;;;;;;;-0.07;93.62;101349.27;3396984;84;98385;-79
2020/12/20 04:46:05;;;;;;;64.53;29.33;;;;;;;-0.13;93.81;101351.77;3416572;85;35068;-79
2020/12/20 04:51:07;;;;;;;65.40;30.90;;;;;;;-0.20;93.89;101346.67;3407267;84;98351;-79
2020/12/20 04:56:11;;;;;;;67.57;29.20;;;;;;;-0.23;93.64;101350.48;3415310;85;35555;-79
2020/12/20 05:01:13;;;;;;;57.60;27.17;;;;;;;-0.36;93.67;101344.61;3380354;85;98785;-81
2020/12/20 05:06:15;;;;;;;59.33;28.63;;;;;;;-0.36;93.85;101342.47;3415822;85;36172;-81
2020/12/20 05:11:34;;;;;;;62.78;27.42;;;;;;;-0.35;93.86;101334.61;3409121;85;98634;-79
2020/12/20 05:16:40;;;;;;;53.60;27.43;;;;;;;-0.48;93.97;101343.91;3415663;85;35157;-79
2020/12/20 05:21:43;;;;;;;63.50;26.83;;;;;;;-0.58;94.17;101345.33;3415098;85;29457;-79
2020/12/20 05:26:44;;;;;;;60.17;25.03;;;;;;;-0.62;94.36;101342.39;3446176;83;98738;-78
2020/12/20 05:31:45;;;;;;;60.55;26.62;;;;;;;-0.63;94.53;101346.72;3463474;83;35002;-79
2020/12/20 05:36:45;;;;;;;56.77;24.47;;;;;;;-0.62;94.71;101349.70;3380290;84;98743;-79
2020/12/20 05:41:48;;;;;;;54.00;26.03;;;;;;;-0.57;94.76;101350.47;3458213;84;35032;-79
2020/12/20 05:46:49;;;;;;;57.73;27.27;;;;;;;-0.53;94.54;101367.75;3461400;83;98675;-79
2020/12/20 05:52:09;;;;;;;57.50;27.63;;;;;;;-0.51;94.55;101369.61;3438561;84;35232;-79
2020/12/20 05:57:21;;;;;;;52.45;24.40;;;;;;;-0.52;94.42;101369.36;3421808;84;98912;-78
2020/12/20 06:02:22;;;;;;;57.13;27.20;;;;;;;-0.49;94.33;101373.39;3419693;84;35017;-78
2020/12/20 06:07:28;;;;;;;55.20;24.77;;;;;;;-0.55;94.21;101381.28;3396262;84;98889;-77
2020/12/20 06:12:30;;;;;;;53.83;25.12;;;;;;;-0.57;94.33;101373.98;3389672;85;25930;-78
2020/12/20 06:17:36;;;;;;;54.50;26.20;;;;;;;-0.65;94.22;101376.75;3388316;84;98606;-78
2020/12/20 06:22:37;;;;;;;49.17;24.50;;;;;;;-0.66;94.26;101376.47;3391596;85;35641;-78
2020/12/20 06:27:41;;;;;;;54.17;26.47;;;;;;;-0.57;94.07;101376.67;3379767;85;98788;-80
2020/12/20 06:32:46;;;;;;;70.80;30.43;;;;;;;-0.62;94.11;101379.44;3342923;86;35511;-80
2020/12/20 06:37:48;;;;;;;71.10;32.03;;;;;;;-0.62;94.43;101374.03;3373163;84;98540;-80
2020/12/20 06:42:52;;;;;;;58.73;27.80;;;;;;;-0.62;94.30;101380.23;3434974;84;35077;-77
2020/12/20 06:48:01;;;;;;;53.73;25.23;;;;;;;-0.65;93.95;101388.09;3436502;84;98892;-80
2020/12/20 06:53:02;;;;;;;55.03;25.27;;;;;;;-0.74;93.75;101397.34;3436610;84;36048;-77
2020/12/20 06:58:14;;;;;;;58.73;27.03;;;;;;;-0.76;93.92;101403.58;3488409;83;99135;-78
2020/12/20 07:03:31;;;;;;;62.87;30.43;;;;;;;-0.82;93.73;101417.38;3456803;83;35011;-78
2020/12/20 07:08:34;;;;;;;65.73;29.57;;;;;;;-0.84;93.69;101417.66;3511889;82;98893;-78
2020/12/20 07:13:42;;;;;;;62.90;27.30;;;;;;;-0.84;93.48;101415.48;3533066;82;35453;-79
2020/12/20 07:19:02;;;;;;;61.13;28.03;;;;;;;-0.82;93.47;101412.77;3523440;82;98828;-78
2020/12/20 07:24:17;;;;;;;57.27;29.57;;;;;;;-0.76;93.52;101416.27;3532019;82;35027;-78
2020/12/20 07:29:19;;;;;;;57.43;26.97;;;;;;;-0.75;93.68;101414.65;3524293;82;98547;-77
2020/12/20 07:34:21;;;;;;;57.40;25.93;;;;;;;-0.73;93.83;101425.19;3397195;85;36181;-77
2020/12/20 07:39:24;;;;;;;64.73;29.33;;;;;;;-0.74;93.85;101424.36;3528265;80;98910;-78
2020/12/20 07:44:25;;;;;;;60.00;25.97;;;;;;;-0.70;94.01;101414.62;3532830;82;35096;-78
2020/12/20 07:49:26;;;;;;;50.90;24.60;;;;;;;-0.70;94.05;101421.38;3517124;82;99021;-80
2020/12/20 07:54:27;;;;;;;48.20;23.30;;;;;;;-0.68;94.10;101423.25;3428522;84;35467;-80
2020/12/20 07:59:27;;;;;;;49.87;24.33;;;;;;;-0.61;94.30;101421.04;3524199;82;98514;-80
2020/12/20 08:04:29;;;;;;;55.17;26.57;;;;;;;-0.50;94.38;101423.16;3531634;82;35509;-80
2020/12/20 08:09:30;;;;;;;64.57;29.27;;;;;;;-0.44;94.36;101419.33;3479939;82;98892;-80
2020/12/20 08:14:30;;;;;;;53.17;27.87;;;;;;;-0.47;94.60;101421.23;3470184;82;34984;-80
2020/12/20 08:19:31;;;;;;;52.93;26.40;;;;;;;-0.27;94.98;101418.66;3456285;82;98815;-80
2020/12/20 08:24:48;;;;;;;53.60;26.43;;;;;;;-0.07;95.20;101424.47;3462683;84;35310;-78
2020/12/20 08:29:53;;;;;;;57.80;28.20;;;;;;;0.16;95.09;101425.08;3286100;83;98843;-78
2020/12/20 08:34:56;;;;;;;50.27;24.47;;;;;;;0.35;95.03;101425.47;3479408;83;34998;-79
2020/12/20 08:40:10;;;;;;;53.87;24.37;;;;;;;0.57;94.88;101440.69;3483780;82;99060;-78
2020/12/20 08:45:19;;;;;;;52.20;23.83;;;;;;;0.65;94.54;101439.23;3517962;82;35707;-78
2020/12/20 08:50:26;;;;;;;49.63;22.97;;;;;;;0.68;94.35;101440.03;3517447;82;98353;-78
2020/12/20 08:55:27;;;;;;;46.20;22.00;;;;;;;0.52;94.31;101440.73;3525698;82;35666;-78
2020/12/20 09:00:28;;;;;;;46.30;22.70;;;;;;;0.49;94.72;101445.89;3520830;82;98527;-79
2020/12/20 09:05:33;;;;;;;45.48;22.20;;;;;;;0.49;95.14;101449.95;3529504;81;35025;-77
2020/12/20 09:10:36;;;;;;;45.13;20.73;;;;;;;0.59;95.30;101445.27;3559074;81;98397;-78
2020/12/20 09:15:39;;;;;;;45.20;21.57;;;;;;;0.63;95.28;101449.56;3550357;81;35325;-79
2020/12/20 09:20:42;;;;;;;43.93;19.90;;;;;;;0.77;95.54;101448.59;3572283;80;98557;-78
2020/12/20 09:25:44;;;;;;;48.03;21.20;;;;;;;0.89;95.58;101445.49;3588900;80;35093;-79
2020/12/20 09:30:56;;;;;;;50.03;23.77;;;;;;;0.98;95.49;101439.67;3559768;81;98521;-78
2020/12/20 09:36:04;;;;;;;44.17;22.17;;;;;;;1.08;95.56;101449.87;3555447;80;35154;-79
2020/12/20 09:41:09;;;;;;;44.63;21.93;;;;;;;1.10;95.39;101445.52;3586913;81;98578;-78
2020/12/20 09:46:26;;;;;;;42.07;20.23;;;;;;;1.13;95.41;101438.15;3593527;81;35655;-81
2020/12/20 09:51:30;;;;;;;45.93;22.00;;;;;;;1.20;95.78;101431.28;3532360;81;98863;-81
2020/12/20 09:56:31;;;;;;;46.90;21.50;;;;;;;1.41;95.75;101434.52;3545954;82;35013;-79
2020/12/20 10:01:32;;;;;;;42.33;22.30;;;;;;;1.62;95.67;101431.25;3543922;81;98349;-80
2020/12/20 10:06:33;;;;;;;46.27;22.90;;;;;;;1.75;95.39;101423.72;3548810;82;35050;-81
2020/12/20 10:11:34;;;;;;;47.80;22.77;;;;;;;1.93;95.51;101427.53;3535497;80;98557;-81
2020/12/20 10:16:36;;;;;;;41.77;21.03;;;;;;;1.93;95.43;101425.63;3543608;81;36037;-82
2020/12/20 10:21:37;;;;;;;46.97;22.80;;;;;;;2.00;95.18;101429.31;3525879;82;35450;-81
2020/12/20 10:26:37;;;;;;;45.93;21.33;;;;;;;2.05;95.03;101424.63;3543273;79;98603;-81
2020/12/20 10:31:40;;;;;;;45.37;23.37;;;;;;;2.13;94.92;101430.72;3551585;82;35354;-81
2020/12/20 10:36:41;;;;;;;41.53;23.43;;;;;;;2.23;95.04;101427.84;3548814;81;98558;-81
2020/12/20 10:41:42;;;;;;;39.07;19.73;;;;;;;2.45;95.04;101421.75;3547002;82;35054;-81
2020/12/20 10:46:43;;;;;;;46.75;22.25;;;;;;;2.56;94.52;101424.56;3539465;82;98991;-82
2020/12/20 10:51:45;;;;;;;47.93;23.93;;;;;;;2.64;94.23;101424.67;3581428;81;35079;-82
2020/12/20 10:56:50;;;;;;;49.10;24.03;;;;;;;2.65;93.75;101429.00;3575535;81;98746;-82
2020/12/20 11:01:50;;;;;;;45.30;25.23;;;;;;;2.67;93.98;101420.55;3544908;82;35597;-82
2020/12/20 11:06:56;;;;;;;49.27;25.60;;;;;;;2.67;94.10;101411.83;3541610;82;98754;-82
2020/12/20 11:11:57;;;;;;;41.70;21.47;;;;;;;2.68;93.84;101412.64;3535955;82;35333;-82
2020/12/20 11:16:59;;;;;;;40.33;22.10;;;;;;;2.71;93.89;101406.59;3529347;81;98979;-81
2020/12/20 11:22:00;;;;;;;42.13;21.47;;;;;;;2.78;94.03;101398.30;3591507;80;35113;-81
2020/12/20 11:27:04;;;;;;;38.20;21.10;;;;;;;2.92;93.83;101403.19;3581060;80;98547;-82
2020/12/20 11:32:06;;;;;;;40.93;20.10;;;;;;;3.00;93.38;101394.88;3586697;80;35623;-80
2020/12/20 11:37:07;;;;;;;36.28;19.65;;;;;;;3.04;93.24;101390.42;3586387;80;98881;-81
2020/12/20 11:42:12;;;;;;;39.80;21.83;;;;;;;3.03;92.89;101390.19;3579922;81;35041;-81
2020/12/20 11:47:12;;;;;;;39.00;21.67;;;;;;;3.12;93.21;101395.95;3588596;80;98679;-80
2020/12/20 11:52:13;;;;;;;42.13;22.17;;;;;;;3.21;92.97;101392.78;3609517;80;34990;-81
2020/12/20 11:57:15;;;;;;;40.97;21.20;;;;;;;3.20;92.53;101384.92;3600746;80;98629;-81
2020/12/20 12:02:16;;;;;;;38.67;19.57;;;;;;;3.15;92.60;101379.05;3607119;80;36236;-81
2020/12/20 12:07:17;;;;;;;35.27;18.90;;;;;;;3.17;92.60;101376.02;3585310;80;98647;-81
2020/12/20 12:12:19;;;;;;;35.07;19.03;;;;;;;3.17;92.47;101366.51;3525430;82;35098;-81
2020/12/20 12:17:20;;;;;;;40.27;20.77;;;;;;;3.19;92.65;101359.66;3521254;82;98326;-81
2020/12/20 12:22:22;;;;;;;38.83;22.07;;;;;;;3.23;92.51;101361.20;3527970;82;35130;-80
2020/12/20 12:27:23;;;;;;;42.50;23.40;;;;;;;3.24;92.71;101370.42;3523193;82;98589;-78
2020/12/20 12:32:24;;;;;;;48.63;24.63;;;;;;;3.29;92.47;101360.77;3531278;81;35091;-81
2020/12/20 12:37:25;;;;;;;43.57;22.97;;;;;;;3.28;92.38;101365.96;3447274;84;98783;-82
2020/12/20 12:42:26;;;;;;;48.97;27.33;;;;;;;3.24;92.17;101368.25;3462131;84;35673;-80
2020/12/20 12:47:27;;;;;;;88.00;48.97;;;;;;;3.15;92.22;101356.47;3438852;84;98665;-80
2020/12/20 12:52:28;;;;;;;68.13;34.13;;;;;;;3.12;92.43;101372.05;3391432;85;35016;-80
2020/12/20 12:57:29;;;;;;;48.97;26.77;;;;;;;3.14;92.48;101365.73;3387154;84;98353;-80
2020/12/20 13:02:32;;;;;;;48.30;23.50;;;;;;;3.14;92.48;101363.02;3393497;85;35075;-80
2020/12/20 13:07:33;;;;;;;42.27;22.15;;;;;;;3.12;92.42;101360.60;3398418;84;98979;-81
2020/12/20 13:12:34;;;;;;;45.57;22.07;;;;;;;3.13;92.59;101360.05;3455962;84;35045;-80
2020/12/20 13:17:35;;;;;;;57.67;29.30;;;;;;;3.22;92.64;101365.04;3410650;83;98554;-80
2020/12/20 13:22:36;;;;;;;44.30;23.13;;;;;;;3.29;92.16;101361.34;3472816;83;35424;-80
2020/12/20 13:27:37;;;;;;;46.53;25.17;;;;;;;3.20;92.21;101359.08;3445448;82;98699;-81
2020/12/20 13:32:38;;;;;;;59.13;31.25;;;;;;;3.14;92.40;101363.02;3509529;82;35251;-80
2020/12/20 13:37:39;;;;;;;53.17;28.83;;;;;;;3.00;92.55;101358.17;3504964;80;98462;-80
2020/12/20 13:42:41;;;;;;;54.47;29.03;;;;;;;2.95;92.70;101357.70;3512005;82;32917;-80
2020/12/20 13:47:42;;;;;;;57.00;31.23;;;;;;;2.87;92.84;101348.92;3498683;82;98760;-79
2020/12/20 13:52:44;;;;;;;51.23;26.47;;;;;;;2.91;93.18;101345.84;3377514;86;33198;-81
2020/12/20 13:57:45;;;;;;;52.43;27.90;;;;;;;2.91;93.18;101345.84;3401462;84;98617;-80
2020/12/20 14:08:29;;;;;;;63.13;33.63;;;;;;;2.91;92.96;101336.34;3348337;83;99241;-81
2020/12/20 14:13:30;;;;;;;47.57;26.40;;;;;;;2.80;93.10;101333.55;3471080;84;32759;-82
2020/12/20 14:18:31;;;;;;;53.93;26.77;;;;;;;2.76;93.21;101331.75;3547874;80;98679;-80
2020/12/20 14:23:32;;;;;;;56.53;29.97;;;;;;;2.66;93.49;101330.59;3510762;83;33234;-81
2020/12/20 14:28:44;;;;;;;54.83;28.97;;;;;;;2.62;93.55;101332.33;3438619;85;99054;-80
2020/12/20 14:33:45;;;;;;;51.50;24.10;;;;;;;2.58;93.51;101342.17;3519492;83;33223;-81
2020/12/20 14:38:56;;;;;;;57.83;29.00;;;;;;;2.49;93.67;101346.69;3535782;81;98728;-80
2020/12/20 14:43:49;;;;;;;58.47;29.63;;;;;;;2.39;93.87;101352.31;3539133;81;32754;-80
2020/12/20 14:48:50;;;;;;;48.37;26.37;;;;;;;2.36;94.36;101350.21;3536988;83;98572;-79
2020/12/20 14:53:53;;;;;;;48.53;24.33;;;;;;;2.36;94.17;101346.14;3549993;81;33296;-80
2020/12/20 14:58:54;;;;;;;49.10;23.20;;;;;;;2.42;94.06;101344.94;3536829;82;98740;-80
2020/12/20 15:03:55;;;;;;;48.57;25.00;;;;;;;2.46;94.04;101345.38;3535814;81;32959;-78
2020/12/20 15:08:57;;;;;;;51.13;25.87;;;;;;;2.49;93.89;101346.16;3531724;81;98779;-79
2020/12/20 15:13:59;;;;;;;58.73;30.07;;;;;;;2.48;93.69;101351.87;3523579;83;32661;-78
2020/12/20 15:19:00;;;;;;;61.77;31.50;;;;;;;2.45;93.65;101351.92;3537883;81;98753;-78
2020/12/20 15:24:10;;;;;;;60.20;30.33;;;;;;;2.37;93.42;101340.41;3543045;82;32678;-81
2020/12/20 15:29:23;;;;;;;63.85;30.92;;;;;;;2.26;93.47;101355.28;3536640;81;98615;-79
2020/12/20 15:34:24;;;;;;;53.20;24.67;;;;;;;2.23;93.71;101351.80;3546742;81;33795;-78
2020/12/20 15:39:25;;;;;;;51.07;24.60;;;;;;;2.20;93.64;101352.37;3535786;81;98504;-79
2020/12/20 15:44:26;;;;;;;52.27;26.17;;;;;;;2.15;93.50;101347.06;3534678;81;32688;-80
2020/12/20 15:49:29;;;;;;;50.60;24.93;;;;;;;2.10;93.77;101337.66;3540932;81;99047;-80
2020/12/20 15:54:30;;;;;;;45.70;25.10;;;;;;;2.07;93.75;101339.59;3547732;81;32942;-79
2020/12/20 15:59:31;;;;;;;42.40;22.70;;;;;;;2.07;93.86;101352.37;3527151;82;98917;-79
2020/12/20 16:04:32;;;;;;;46.10;22.60;;;;;;;2.05;93.72;101349.14;3538939;83;32897;-79
2020/12/20 16:09:34;;;;;;;43.80;23.07;;;;;;;1.95;93.80;101339.27;3502125;82;98875;-80
2020/12/20 16:14:36;;;;;;;64.63;29.93;;;;;;;1.85;94.02;101333.19;3501163;82;33322;-80
2020/12/20 16:19:37;;;;;;;57.40;29.50;;;;;;;1.84;94.02;101328.87;3510928;82;98789;-79
2020/12/20 16:24:38;;;;;;;56.93;26.33;;;;;;;1.90;94.06;101337.17;3509263;84;33317;-80
2020/12/20 16:29:38;;;;;;;42.40;22.13;;;;;;;1.89;93.99;101329.60;3496499;82;98578;-80
2020/12/20 16:34:39;;;;;;;47.33;22.73;;;;;;;1.94;93.92;101334.95;3511998;84;32712;-80
2020/12/20 16:39:41;;;;;;;48.23;26.17;;;;;;;1.89;93.77;101339.64;3495929;83;98810;-79
2020/12/20 16:44:43;;;;;;;44.13;22.37;;;;;;;1.79;93.65;101341.16;3497558;84;32769;-80
2020/12/20 16:49:44;;;;;;;51.27;25.00;;;;;;;1.64;93.68;101346.29;3502328;82;98849;-80
2020/12/20 16:54:45;;;;;;;50.73;24.67;;;;;;;1.55;93.88;101346.72;3510231;84;32742;-80
2020/12/20 16:59:46;;;;;;;48.83;24.03;;;;;;;1.53;94.00;101344.84;3507852;83;98514;-80
2020/12/20 17:04:47;;;;;;;75.27;31.17;;;;;;;1.52;93.89;101340.52;3512597;82;33241;-80
2020/12/20 17:09:48;;;;;;;70.43;30.53;;;;;;;1.48;94.29;101338.13;3503851;83;98581;-80
2020/12/20 17:14:50;;;;;;;69.90;33.43;;;;;;;1.48;94.28;101344.12;3493157;83;32772;-80
2020/12/20 17:19:51;;;;;;;64.97;32.23;;;;;;;1.44;94.41;101342.55;3468032;83;98342;-80
2020/12/20 17:24:55;;;;;;;67.90;32.13;;;;;;;1.46;94.23;101336.81;3446522;84;32679;-80
2020/12/20 17:29:55;;;;;;;63.87;33.70;;;;;;;1.36;94.07;101339.13;3445219;83;98570;-80
2020/12/20 17:34:58;;;;;;;65.97;32.43;;;;;;;1.30;93.77;101340.84;3441406;84;32685;-80
2020/12/20 17:40:00;;;;;;;94.00;47.57;;;;;;;1.22;93.80;101338.81;3440109;84;98619;-81
2020/12/20 17:45:05;;;;;;;92.07;47.07;;;;;;;1.22;93.96;101340.16;3435108;84;32836;-80
2020/12/20 17:50:10;;;;;;;78.97;42.87;;;;;;;1.21;93.95;101330.42;3406412;84;98460;-81
2020/12/20 17:55:11;;;;;;;82.17;41.47;;;;;;;1.14;93.90;101332.13;3453820;84;32783;-80
2020/12/20 18:00:12;;;;;;;85.57;38.40;;;;;;;1.16;93.85;101332.63;3461026;84;99118;-79
2020/12/20 18:05:13;;;;;;;98.03;41.10;;;;;;;1.19;93.90;101328.53;3472034;84;33142;-80
2020/12/20 18:10:15;;;;;;;89.17;40.00;;;;;;;1.16;93.59;101313.66;3545388;81;98634;-81
2020/12/20 18:15:16;;;;;;;92.83;41.13;;;;;;;1.09;93.60;101313.23;3564661;81;32630;-80
2020/12/20 18:20:17;;;;;;;86.10;40.70;;;;;;;0.97;93.63;101314.75;3549517;81;98373;-80
2020/12/20 18:25:18;;;;;;;78.40;35.70;;;;;;;0.88;93.54;101312.45;3556671;82;32950;-81
2020/12/20 18:30:19;;;;;;;84.57;39.40;;;;;;;0.81;93.73;101313.34;3563129;81;98333;-79
2020/12/20 18:35:20;;;;;;;101.37;52.80;;;;;;;0.80;93.81;101313.09;3564138;81;32640;-80
2020/12/20 18:40:21;;;;;;;122.63;57.53;;;;;;;0.78;94.12;101318.00;3556681;81;98724;-80
2020/12/20 18:45:22;;;;;;;117.97;55.80;;;;;;;0.77;94.05;101318.53;3566917;82;32795;-80
2020/12/20 18:50:23;;;;;;;87.13;42.40;;;;;;;0.77;93.90;101318.53;3553066;81;98887;-80
2020/12/20 18:55:25;;;;;;;73.40;35.03;;;;;;;0.66;94.08;101317.05;3568742;82;33257;-79
2020/12/20 19:00:34;;;;;;;71.37;32.63;;;;;;;0.58;94.08;101304.70;3557934;81;98627;-79
2020/12/20 19:05:31;;;;;;;63.20;30.13;;;;;;;0.52;94.21;101312.09;3548517;81;32700;-79
2020/12/20 19:10:32;;;;;;;53.60;25.37;;;;;;;0.56;94.42;101301.48;3535241;82;98870;-80
2020/12/20 19:15:34;;;;;;;48.43;24.00;;;;;;;0.67;94.59;101315.16;3539369;82;32735;-81
2020/12/20 19:20:35;;;;;;;53.17;24.10;;;;;;;0.68;94.47;101314.06;3519495;82;98100;-79
2020/12/20 19:25:36;;;;;;;53.53;25.23;;;;;;;0.63;94.62;101322.25;3444831;84;32703;-81
2020/12/20 19:30:37;;;;;;;54.23;25.17;;;;;;;0.63;94.48;101322.25;3421540;84;98375;-79
2020/12/20 19:35:38;;;;;;;50.63;24.23;;;;;;;0.58;94.59;101319.06;3440771;84;33653;-80
2020/12/20 19:40:39;;;;;;;55.47;27.33;;;;;;;0.59;94.83;101316.61;3456602;83;98446;-79
2020/12/20 19:45:40;;;;;;;57.33;28.20;;;;;;;0.61;94.79;101318.47;3487493;84;33194;-79
2020/12/20 19:50:42;;;;;;;54.00;26.67;;;;;;;0.72;95.00;101328.65;3468342;83;98693;-80
2020/12/20 19:55:44;;;;;;;65.57;29.57;;;;;;;0.77;94.73;101328.59;3464856;84;33027;-80
2020/12/20 20:00:51;;;;;;;53.40;24.83;;;;;;;0.86;94.52;101330.89;3459295;83;98541;-80
2020/12/20 20:05:52;;;;;;;56.07;25.70;;;;;;;0.86;94.52;101330.89;3471734;84;32697;-80
2020/12/20 20:10:57;;;;;;;60.90;26.43;;;;;;;0.75;94.35;101330.22;3464995;83;98215;-82
2020/12/20 20:15:58;;;;;;;51.27;25.07;;;;;;;0.67;94.34;101332.77;3472350;84;33019;-79
2020/12/20 20:20:59;;;;;;;44.87;22.83;;;;;;;0.66;94.55;101344.14;3460744;84;98121;-80
2020/12/20 20:26:21;;;;;;;51.77;24.30;;;;;;;0.65;94.73;101338.47;3468931;84;32767;-79
2020/12/20 20:31:25;;;;;;;42.57;20.30;;;;;;;0.67;94.58;101335.48;3465125;83;98517;-81
2020/12/20 20:36:48;;;;;;;47.73;22.33;;;;;;;0.70;94.81;101330.82;3464831;83;32757;-80
2020/12/20 20:41:48;;;;;;;50.77;22.60;;;;;;;0.74;94.54;101328.62;3432671;84;33415;-87
2020/12/20 20:46:49;;;;;;;61.27;24.80;;;;;;;0.78;94.46;101336.40;3421347;84;98790;-86
2020/12/20 20:51:50;;;;;;;52.70;25.30;;;;;;;0.79;94.45;101327.73;3426540;84;32773;-86
2020/12/20 20:56:51;;;;;;;59.87;23.77;;;;;;;0.67;94.44;101328.70;3415668;84;98703;-86
2020/12/20 21:01:52;;;;;;;61.57;28.30;;;;;;;0.56;94.38;101332.63;3429299;84;32750;-88
2020/12/20 21:06:53;;;;;;;64.37;27.80;;;;;;;0.53;94.49;101326.42;3504863;82;98387;-87
2020/12/20 21:11:54;;;;;;;73.37;27.40;;;;;;;0.46;94.50;101327.33;3437259;84;33382;-88
2020/12/20 21:16:55;;;;;;;69.87;27.87;;;;;;;0.37;94.79;101337.98;3424097;84;98411;-87
2020/12/20 21:21:56;;;;;;;69.73;30.70;;;;;;;0.46;95.03;101342.22;3410809;84;33230;-88
2020/12/20 21:27:06;;;;;;;62.63;29.53;;;;;;;0.56;94.87;101346.96;3413985;84;98679;-88
2020/12/20 21:32:07;;;;;;;57.40;26.30;;;;;;;0.64;94.69;101350.94;3418085;84;33200;-88
2020/12/20 21:37:09;;;;;;;52.37;24.70;;;;;;;0.59;94.55;101339.63;3508867;82;98470;-89
2020/12/20 21:42:09;;;;;;;63.90;27.67;;;;;;;0.54;94.35;101344.28;3508991;82;32801;-89
2020/12/20 21:47:10;;;;;;;57.00;27.77;;;;;;;0.43;94.35;101339.54;3498289;83;98358;-89
2020/12/20 21:52:11;;;;;;;56.73;26.07;;;;;;;0.42;94.43;101340.64;3512963;83;32711;-89
2020/12/20 21:57:12;;;;;;;58.10;24.45;;;;;;;0.42;94.40;101347.95;3508634;82;98645;-89
2020/12/20 22:02:13;;;;;;;63.40;26.63;;;;;;;0.44;94.34;101347.92;3512485;83;33222;-89
2020/12/20 22:07:14;;;;;;;61.63;27.80;;;;;;;0.42;94.32;101341.17;3502561;82;98898;-89
2020/12/20 22:12:15;;;;;;;62.10;26.20;;;;;;;0.34;94.43;101336.41;3504441;83;33715;-89
2020/12/20 22:17:16;;;;;;;60.37;26.20;;;;;;;0.20;94.36;101340.34;3509443;83;98370;-87
2020/12/20 22:22:17;;;;;;;68.70;29.97;;;;;;;0.12;94.55;101327.41;3513678;83;32098;-89
2020/12/20 22:27:18;;;;;;;60.05;25.50;;;;;;;0.05;94.95;101316.66;3511441;82;98452;-89
2020/12/20 22:32:28;;;;;;;57.97;27.33;;;;;;;-0.02;95.58;101323.52;3512370;82;27482;-88
2020/12/20 22:37:30;;;;;;;57.40;25.00;;;;;;;-0.05;95.79;101318.13;3506418;82;98702;-88
2020/12/20 22:42:33;;;;;;;65.03;25.23;;;;;;;-0.03;95.56;101325.41;3521677;82;27454;-88
2020/12/20 22:47:35;;;;;;;52.67;24.00;;;;;;;0.08;95.67;101327.74;3511484;82;98832;-89
2020/12/20 22:52:36;;;;;;;53.53;24.93;;;;;;;0.27;95.47;101341.33;3509593;82;26560;-86
2020/12/20 22:57:38;;;;;;;57.13;23.70;;;;;;;0.27;95.15;101345.39;3499036;83;98663;-85
2020/12/20 23:02:39;;;;;;;60.67;28.13;;;;;;;0.29;94.96;101352.13;3520708;82;27623;-85
2020/12/20 23:07:42;;;;;;;58.00;26.23;;;;;;;0.32;94.99;101352.11;3508431;83;98401;-86
2020/12/20 23:12:43;;;;;;;52.73;26.37;;;;;;;0.38;94.77;101350.42;3518195;82;27650;-85